Time;durP1;ratioP1;P1;durP2;ratioP2;P2;SDS_P1;SDS_P2;PMS_P1;PMS_P2;Temp;Humidity;BMP_temperature;BMP_pressure;BME280_temperature;BME280_humidity;BME280_pressure;Samples;Min_cycle;Max_cycle;Signal;HPM_P1;HPM_P2
2023/06/13 00:00:33;;;;;;;2.80;1.60;;;;;;;21.86;54.04;100112.48;108990;1270;21979;-68
2023/06/13 00:03:00;;;;;;;6.50;1.90;;;;;;;21.92;53.72;100111.69;108941;1268;21974;-59
2023/06/13 00:05:26;;;;;;;3.50;1.90;;;;;;;21.90;53.91;100114.30;109003;1270;22146;-69
2023/06/13 00:07:52;;;;;;;4.50;1.90;;;;;;;21.89;53.98;100113.52;109028;1274;199690;-58
2023/06/13 00:10:18;;;;;;;3.20;1.60;;;;;;;21.90;54.17;100108.27;109008;1274;21974;-58
2023/06/13 00:12:44;;;;;;;3.80;1.70;;;;;;;21.90;54.53;100105.41;109176;1271;21976;-59
2023/06/13 00:15:11;;;;;;;3.20;1.50;;;;;;;21.88;54.16;100106.07;108978;1269;21950;-58
2023/06/13 00:17:38;;;;;;;7.90;2.10;;;;;;;21.86;54.42;100100.86;108963;1268;21974;-59
2023/06/13 00:20:07;;;;;;;3.70;1.80;;;;;;;21.83;54.49;100098.86;109033;1270;21974;-59
2023/06/13 00:22:33;;;;;;;3.00;1.60;;;;;;;21.82;54.81;100098.73;109061;1274;22154;-71
2023/06/13 00:24:59;;;;;;;2.40;1.50;;;;;;;21.85;54.70;100100.70;109030;1268;23442;-69
2023/06/13 00:27:25;;;;;;;2.60;1.60;;;;;;;21.90;54.49;100098.65;109046;1270;21979;-59
2023/06/13 00:29:51;;;;;;;3.60;1.40;;;;;;;21.90;54.61;100093.97;109025;1274;21974;-60
2023/06/13 00:32:17;;;;;;;3.60;1.30;;;;;;;21.89;54.74;100091.73;108994;1274;21982;-60
2023/06/13 00:34:43;;;;;;;3.20;1.20;;;;;;;21.86;54.96;100091.90;108981;1274;21984;-59
2023/06/13 00:37:09;;;;;;;4.40;1.70;;;;;;;21.85;54.95;100093.08;109141;1274;21968;-68
2023/06/13 00:39:36;;;;;;;3.60;1.40;;;;;;;21.84;55.02;100090.27;109224;1274;21985;-61
2023/06/13 00:42:02;;;;;;;2.70;1.20;;;;;;;21.82;55.17;100089.99;109034;1274;21998;-59
2023/06/13 00:44:28;;;;;;;2.90;1.50;;;;;;;21.83;55.20;100090.14;109085;1270;22014;-67
2023/06/13 00:46:53;;;;;;;4.30;1.50;;;;;;;21.83;55.29;100086.06;108944;1268;22015;-68
2023/06/13 00:49:19;;;;;;;2.90;1.70;;;;;;;21.82;55.35;100083.05;108786;1275;22042;-68
2023/06/13 00:51:45;;;;;;;4.00;1.90;;;;;;;21.83;55.29;100080.34;109030;1273;21969;-59
2023/06/13 00:54:13;;;;;;;2.70;1.60;;;;;;;21.84;55.24;100081.48;108868;1274;21976;-60
2023/06/13 00:56:40;;;;;;;3.10;1.40;;;;;;;21.85;55.21;100082.00;109062;1264;21994;-59
2023/06/13 00:59:06;;;;;;;2.90;1.30;;;;;;;21.82;55.64;100083.27;108896;1270;21974;-60
2023/06/13 01:01:33;;;;;;;4.70;1.70;;;;;;;21.79;55.62;100080.24;108893;1274;21978;-59
2023/06/13 01:03:59;;;;;;;2.60;1.70;;;;;;;21.77;55.70;100078.58;109008;1270;21976;-69
2023/06/13 01:06:28;;;;;;;6.80;1.60;;;;;;;21.70;56.06;100078.64;108981;1273;22069;-61
2023/06/13 01:08:58;;;;;;;3.70;1.80;;;;;;;21.59;56.50;100073.24;109044;1264;22043;-59
2023/06/13 01:11:28;;;;;;;2.70;1.40;;;;;;;21.54;56.98;100070.15;109012;1264;21952;-66
2023/06/13 01:14:01;;;;;;;4.10;2.00;;;;;;;21.51;57.48;100065.89;109023;1274;21976;-71
2023/06/13 01:16:43;;;;;;;2.00;1.20;;;;;;;21.57;56.50;100069.80;109113;1268;23607;-59
2023/06/13 01:19:41;;;;;;;6.10;1.40;;;;;;;21.62;56.45;100064.33;108980;1274;22068;-68
2023/06/13 01:22:17;;;;;;;7.60;1.80;;;;;;;21.64;56.66;100059.05;108969;1274;21979;-69
2023/06/13 01:24:49;;;;;;;4.60;1.70;;;;;;;21.62;56.79;100057.02;109014;1271;22026;-68
2023/06/13 01:27:14;;;;;;;4.10;1.60;;;;;;;21.60;57.41;100058.41;108997;1268;22448;-70
2023/06/13 01:29:40;;;;;;;5.10;1.60;;;;;;;21.56;57.49;100060.93;108933;1267;21974;-69
2023/06/13 01:32:07;;;;;;;1.90;1.30;;;;;;;21.53;57.52;100064.83;108978;1270;21976;-59
2023/06/13 01:34:33;;;;;;;4.00;1.60;;;;;;;21.51;57.69;100062.67;109027;1270;21975;-59
2023/06/13 01:36:58;;;;;;;2.70;1.60;;;;;;;21.49;58.16;100060.63;108843;1273;22014;-69
2023/06/13 01:39:25;;;;;;;3.10;1.40;;;;;;;21.47;57.97;100060.95;108852;1274;21976;-70
2023/06/13 01:41:51;;;;;;;3.40;1.70;;;;;;;21.44;57.90;100061.47;109037;1274;21974;-59
2023/06/13 01:44:17;;;;;;;6.60;1.70;;;;;;;21.45;58.05;100057.17;108998;1270;21989;-68
2023/06/13 01:46:56;;;;;;;6.00;1.90;;;;;;;21.45;58.31;100055.38;109045;1267;21976;-68
2023/06/13 01:49:36;;;;;;;4.40;1.90;;;;;;;21.45;58.58;100053.41;109123;1268;21979;-65
2023/06/13 01:52:08;;;;;;;6.30;2.20;;;;;;;21.45;58.31;100051.46;109002;1273;21984;-68
2023/06/13 01:54:37;;;;;;;2.90;1.70;;;;;;;21.43;58.66;100048.37;108960;1275;21978;-68
2023/06/13 01:57:03;;;;;;;6.50;2.40;;;;;;;21.42;58.59;100050.05;108917;1275;21974;-63
2023/06/13 01:59:30;;;;;;;5.10;1.90;;;;;;;21.41;58.48;100053.63;108951;1269;22054;-59
2023/06/13 02:01:56;;;;;;;2.80;1.60;;;;;;;21.44;58.19;100057.39;108572;1273;22012;-59
2023/06/13 02:04:22;;;;;;;3.30;2.00;;;;;;;21.46;58.45;100054.63;108880;1275;21976;-67
2023/06/13 02:06:47;;;;;;;7.20;1.90;;;;;;;21.45;58.89;100055.16;108885;1270;23706;-58
2023/06/13 02:09:13;;;;;;;4.40;2.00;;;;;;;21.44;58.75;100054.52;108879;1264;21979;-59
2023/06/13 02:11:39;;;;;;;4.90;2.20;;;;;;;21.42;59.08;100053.08;108917;1270;21980;-59
2023/06/13 02:14:06;;;;;;;7.20;2.50;;;;;;;21.41;58.95;100052.95;108953;1264;23599;-59
2023/06/13 02:16:32;;;;;;;5.70;2.40;;;;;;;21.41;58.76;100053.85;108864;1275;21970;-59
2023/06/13 02:18:59;;;;;;;7.60;2.40;;;;;;;21.41;59.10;100052.60;108966;1267;21987;-69
2023/06/13 02:21:25;;;;;;;4.10;2.30;;;;;;;21.41;59.13;100054.39;108969;1264;22014;-69
2023/06/13 02:23:51;;;;;;;5.30;2.50;;;;;;;21.37;59.73;100056.39;108928;1270;21974;-70
2023/06/13 02:26:16;;;;;;;6.20;2.50;;;;;;;21.35;59.86;100059.77;108928;1270;23654;-59
2023/06/13 02:28:42;;;;;;;4.90;2.50;;;;;;;21.38;59.43;100059.04;108966;1275;22015;-69
2023/06/13 02:31:08;;;;;;;3.80;2.30;;;;;;;21.38;60.10;100060.41;109001;1267;21987;-69
2023/06/13 02:33:38;;;;;;;4.20;2.40;;;;;;;21.36;59.87;100066.61;109000;1271;21980;-59
2023/06/13 02:36:06;;;;;;;7.50;2.40;;;;;;;21.36;59.65;100066.44;109014;1264;21982;-58
2023/06/13 02:38:32;;;;;;;6.60;2.50;;;;;;;21.37;59.77;100066.91;108941;1266;21990;-60
2023/06/13 02:40:59;;;;;;;8.90;2.40;;;;;;;21.39;59.65;100066.27;108920;1274;22007;-59
2023/06/13 02:43:25;;;;;;;3.70;2.10;;;;;;;21.42;60.01;100060.89;108932;1270;21971;-71
2023/06/13 02:45:51;;;;;;;5.90;2.30;;;;;;;21.44;60.25;100059.16;108902;1270;21985;-69
2023/06/13 02:48:17;;;;;;;4.70;2.30;;;;;;;21.44;60.55;100058.81;108937;1275;23597;-69
2023/06/13 02:50:43;;;;;;;3.50;2.30;;;;;;;21.45;59.98;100059.09;108953;1275;21992;-59
2023/06/13 02:53:08;;;;;;;4.60;2.10;;;;;;;21.46;60.20;100063.53;109051;1271;21983;-64
2023/06/13 02:55:34;;;;;;;5.90;3.20;;;;;;;21.46;60.29;100065.98;109032;1274;21988;-70
2023/06/13 02:58:00;;;;;;;6.30;2.90;;;;;;;21.48;60.23;100063.39;108991;1269;21988;-59
2023/06/13 03:00:25;;;;;;;12.10;2.90;;;;;;;21.51;60.98;100063.23;109011;1271;21982;-70
2023/06/13 03:02:51;;;;;;;5.70;2.80;;;;;;;21.49;60.63;100066.88;108942;1274;21945;-59
2023/06/13 03:05:18;;;;;;;4.80;2.60;;;;;;;21.50;60.50;100061.65;109064;1274;21974;-72
2023/06/13 03:07:46;;;;;;;7.10;3.30;;;;;;;21.52;60.26;100061.16;109199;1271;24314;-60
2023/06/13 03:10:12;;;;;;;6.60;2.60;;;;;;;21.52;60.24;100063.81;109048;1274;22334;-60
2023/06/13 03:12:39;;;;;;;3.60;2.50;;;;;;;21.56;60.31;100060.96;109169;1274;21987;-61
2023/06/13 03:15:06;;;;;;;4.50;2.30;;;;;;;21.56;60.34;100059.85;109004;1274;24389;-61
2023/06/13 03:17:33;;;;;;;4.00;2.30;;;;;;;21.58;60.39;100063.15;109080;1271;22088;-61
2023/06/13 03:19:59;;;;;;;4.80;2.80;;;;;;;21.61;60.45;100063.15;109176;1262;21982;-68
2023/06/13 03:22:25;;;;;;;5.50;3.00;;;;;;;21.63;60.29;100062.11;109137;1274;22234;-60
2023/06/13 03:24:50;;;;;;;4.30;2.70;;;;;;;21.66;60.41;100063.36;108979;1271;21985;-60
2023/06/13 03:27:16;;;;;;;4.50;3.10;;;;;;;21.70;60.42;100067.57;108968;1264;21974;-69
2023/06/13 03:29:42;;;;;;;6.50;3.10;;;;;;;21.71;60.21;100068.58;109100;1268;21970;-71
2023/06/13 03:32:08;;;;;;;4.50;2.90;;;;;;;21.73;60.55;100067.77;109035;1274;22014;-60
2023/06/13 03:34:38;;;;;;;4.30;2.80;;;;;;;21.73;60.64;100070.27;108992;1274;21976;-62
2023/06/13 03:37:09;;;;;;;6.30;3.00;;;;;;;21.73;60.44;100069.19;109019;1273;22162;-60
2023/06/13 03:39:35;;;;;;;10.60;3.40;;;;;;;21.72;60.66;100069.41;109036;1271;21976;-68
2023/06/13 03:42:01;;;;;;;8.20;3.40;;;;;;;21.74;60.55;100071.98;109002;1274;21996;-70
2023/06/13 03:44:27;;;;;;;4.70;2.70;;;;;;;21.77;60.40;100072.86;108943;1265;21974;-69
2023/06/13 03:46:56;;;;;;;7.30;2.80;;;;;;;21.79;60.87;100074.33;108999;1274;21987;-70
2023/06/13 03:49:22;;;;;;;6.10;2.80;;;;;;;21.80;60.90;100069.48;108993;1265;23631;-71
2023/06/13 03:51:48;;;;;;;6.00;3.00;;;;;;;21.78;61.02;100070.48;108917;1271;21974;-61
2023/06/13 03:54:14;;;;;;;7.50;3.10;;;;;;;21.77;60.94;100071.95;108935;1271;22014;-68
2023/06/13 03:56:40;;;;;;;6.80;2.70;;;;;;;21.77;60.81;100071.05;108961;1270;22031;-60
2023/06/13 03:59:06;;;;;;;5.70;3.20;;;;;;;21.79;60.91;100070.20;108938;1275;21974;-71
2023/06/13 04:01:31;;;;;;;4.50;2.50;;;;;;;21.79;61.26;100071.83;108972;1273;21972;-70
2023/06/13 04:03:57;;;;;;;6.30;3.50;;;;;;;21.85;61.20;100071.80;108957;1264;21985;-60
2023/06/13 04:06:23;;;;;;;5.90;3.00;;;;;;;21.89;61.34;100071.55;108987;1266;21977;-70
2023/06/13 04:08:48;;;;;;;4.90;3.50;;;;;;;21.93;61.41;100070.08;108979;1274;22013;-60
2023/06/13 04:11:14;;;;;;;6.10;3.60;;;;;;;21.94;61.26;100072.45;108939;1274;22312;-60
2023/06/13 04:13:41;;;;;;;6.20;3.30;;;;;;;21.94;61.57;100073.02;108991;1274;21979;-60
2023/06/13 04:16:06;;;;;;;6.40;3.40;;;;;;;21.92;61.43;100074.75;108920;1264;21968;-71
2023/06/13 04:18:36;;;;;;;4.80;3.20;;;;;;;21.91;61.66;100073.17;109103;1274;22146;-60
2023/06/13 04:21:03;;;;;;;8.40;3.10;;;;;;;21.93;61.66;100074.13;109088;1271;22019;-60
2023/06/13 04:23:30;;;;;;;5.90;3.20;;;;;;;21.97;61.75;100073.19;109209;1274;23702;-66
2023/06/13 04:25:57;;;;;;;10.30;3.60;;;;;;;22.02;61.63;100073.55;109138;1272;21982;-59
2023/06/13 04:28:24;;;;;;;5.60;3.80;;;;;;;22.09;61.90;100071.31;109213;1270;21979;-60
2023/06/13 04:30:51;;;;;;;5.20;3.20;;;;;;;22.13;61.81;100075.13;109183;1264;22114;-70
2023/06/13 04:33:18;;;;;;;10.40;3.90;;;;;;;22.17;61.86;100076.52;108982;1267;21980;-60
2023/06/13 04:35:44;;;;;;;18.80;4.00;;;;;;;22.19;61.83;100071.59;108991;1274;22522;-70
2023/06/13 04:38:20;;;;;;;7.90;3.50;;;;;;;22.21;62.09;100065.54;109088;1271;21977;-60
2023/06/13 04:40:46;;;;;;;7.40;3.30;;;;;;;22.23;62.20;100061.10;108948;1267;21976;-59
2023/06/13 04:43:17;;;;;;;6.60;2.90;;;;;;;22.26;62.47;100059.30;109185;1271;21980;-60
2023/06/13 04:45:44;;;;;;;6.10;3.70;;;;;;;22.30;62.43;100058.69;109015;1265;21976;-59
2023/06/13 04:48:11;;;;;;;5.80;3.70;;;;;;;22.35;62.85;100059.96;108934;1274;22816;-69
2023/06/13 04:50:40;;;;;;;6.70;4.00;;;;;;;22.37;63.10;100062.50;109114;1270;21978;-59
2023/06/13 04:53:11;;;;;;;6.00;2.90;;;;;;;22.39;62.80;100066.31;108896;1271;22010;-60
2023/06/13 04:55:38;;;;;;;4.90;3.40;;;;;;;22.40;62.89;100070.71;108952;1273;23628;-70
2023/06/13 04:58:04;;;;;;;5.80;3.00;;;;;;;22.44;63.00;100072.79;108782;1269;21987;-68
2023/06/13 05:00:30;;;;;;;6.00;3.40;;;;;;;22.49;63.23;100072.85;110522;1269;21971;-69
2023/06/13 05:02:56;;;;;;;3.60;2.80;;;;;;;22.48;62.71;100072.52;108853;1275;21993;-68
2023/06/13 05:05:22;;;;;;;5.40;3.40;;;;;;;22.46;62.66;100074.65;108816;1271;21974;-68
2023/06/13 05:07:55;;;;;;;6.40;2.80;;;;;;;22.44;62.35;100081.92;108839;1267;21977;-67
2023/06/13 05:10:24;;;;;;;4.80;2.70;;;;;;;22.38;63.03;100081.23;108921;1264;21978;-69
2023/06/13 05:12:50;;;;;;;4.00;2.90;;;;;;;22.43;62.97;100082.15;108862;1270;21988;-68
2023/06/13 05:15:16;;;;;;;4.50;2.90;;;;;;;22.44;63.04;100080.13;108769;1268;21980;-69
2023/06/13 05:17:45;;;;;;;4.60;2.70;;;;;;;22.40;63.93;100080.23;108916;1264;21979;-60
2023/06/13 05:20:12;;;;;;;4.20;2.60;;;;;;;22.40;64.28;100080.70;108921;1271;22234;-68
2023/06/13 05:22:39;;;;;;;5.80;3.00;;;;;;;22.45;64.21;100083.12;108864;1275;21986;-60
2023/06/13 05:25:08;;;;;;;4.30;3.00;;;;;;;22.51;64.17;100087.19;108890;1274;21987;-69
2023/06/13 05:27:35;;;;;;;4.90;2.80;;;;;;;22.53;63.61;100086.30;108925;1271;21989;-68
2023/06/13 05:30:00;;;;;;;4.80;2.70;;;;;;;22.56;63.38;100084.31;108920;1271;21991;-71
2023/06/13 05:32:26;;;;;;;7.20;2.50;;;;;;;22.59;63.02;100086.65;108874;1271;21973;-59
2023/06/13 05:34:52;;;;;;;4.10;2.60;;;;;;;22.57;63.17;100088.77;108891;1268;21978;-60
2023/06/13 05:37:18;;;;;;;4.20;2.70;;;;;;;22.56;63.07;100092.58;108863;1274;22046;-70
2023/06/13 05:39:43;;;;;;;3.00;2.20;;;;;;;22.55;62.75;100096.73;108903;1275;21986;-59
2023/06/13 05:42:10;;;;;;;5.10;2.70;;;;;;;22.53;62.73;100098.00;109014;1274;23599;-59
2023/06/13 05:44:36;;;;;;;4.50;2.40;;;;;;;22.50;62.90;100100.36;108832;1267;21979;-71
2023/06/13 05:47:03;;;;;;;3.70;2.40;;;;;;;22.46;63.08;100101.31;108905;1275;21988;-71
2023/06/13 05:49:28;;;;;;;3.20;2.40;;;;;;;22.45;63.06;100101.56;108931;1275;22496;-60
2023/06/13 05:51:54;;;;;;;3.80;2.40;;;;;;;22.47;63.26;100101.77;108845;1270;21981;-70
2023/06/13 05:54:20;;;;;;;6.50;2.80;;;;;;;22.46;63.26;100102.00;109075;1275;21981;-60
2023/06/13 05:56:46;;;;;;;5.50;3.00;;;;;;;22.50;63.18;100102.08;108949;1271;22433;-70
2023/06/13 05:59:14;;;;;;;4.30;2.70;;;;;;;22.51;63.52;100107.05;108933;1275;21984;-69
2023/06/13 06:01:42;;;;;;;3.50;2.50;;;;;;;22.53;63.56;100109.62;108895;1267;23047;-60
2023/06/13 06:04:07;;;;;;;4.90;2.80;;;;;;;22.53;63.61;100110.99;109808;1267;21978;-69
2023/06/13 06:06:34;;;;;;;5.60;2.50;;;;;;;22.57;63.56;100114.16;109001;1271;21983;-59
2023/06/13 06:09:00;;;;;;;4.70;2.90;;;;;;;22.63;63.63;100113.39;108982;1274;21979;-59
2023/06/13 06:11:26;;;;;;;3.70;2.40;;;;;;;22.69;63.82;100110.45;109070;1274;21985;-69
2023/06/13 06:13:56;;;;;;;5.90;3.10;;;;;;;22.75;63.61;100103.64;108938;1272;21983;-68
2023/06/13 06:16:21;;;;;;;4.80;2.80;;;;;;;22.80;63.86;100101.88;109111;1268;21976;-69
2023/06/13 06:18:48;;;;;;;4.60;3.10;;;;;;;22.82;63.98;100104.77;108934;1274;21985;-61
2023/06/13 06:21:14;;;;;;;5.50;3.00;;;;;;;22.85;63.84;100105.13;108956;1267;22040;-68
2023/06/13 06:23:42;;;;;;;4.80;2.90;;;;;;;22.89;64.00;100101.27;109007;1271;22420;-59
2023/06/13 06:26:11;;;;;;;4.90;3.20;;;;;;;22.96;64.07;100101.86;109007;1271;21983;-61
2023/06/13 06:28:38;;;;;;;5.00;2.60;;;;;;;23.04;64.49;100098.45;109083;1274;21985;-70
2023/06/13 06:31:05;;;;;;;4.00;2.50;;;;;;;23.14;64.57;100097.78;108999;1274;21985;-59
2023/06/13 06:33:31;;;;;;;5.50;2.90;;;;;;;23.24;64.50;100099.28;108982;1266;22032;-59
2023/06/13 06:35:57;;;;;;;7.40;3.40;;;;;;;23.31;64.31;100103.23;108999;1270;21977;-72
2023/06/13 06:38:22;;;;;;;4.10;3.00;;;;;;;23.35;63.89;100099.05;109008;1274;21978;-69
2023/06/13 06:40:48;;;;;;;5.20;3.20;;;;;;;23.37;63.84;100098.41;108979;1274;21974;-59
2023/06/13 06:43:14;;;;;;;4.70;3.40;;;;;;;23.42;63.80;100098.21;108996;1264;21981;-59
2023/06/13 06:45:39;;;;;;;5.80;3.80;;;;;;;23.47;63.60;100099.60;108937;1268;21987;-69
2023/06/13 06:48:05;;;;;;;5.70;3.00;;;;;;;23.51;63.45;100095.61;108871;1275;21982;-59
2023/06/13 06:50:32;;;;;;;5.80;3.60;;;;;;;23.51;63.42;100100.75;109185;1272;21983;-71
2023/06/13 06:52:57;;;;;;;5.80;3.30;;;;;;;23.56;63.36;100104.19;109159;1271;21984;-60
2023/06/13 06:55:23;;;;;;;5.50;3.50;;;;;;;23.61;63.26;100108.50;109080;1274;21977;-60
2023/06/13 06:57:49;;;;;;;8.90;4.10;;;;;;;23.63;63.12;100106.02;108960;1272;22014;-68
2023/06/13 07:00:15;;;;;;;7.10;4.30;;;;;;;23.63;63.21;100104.05;108974;1271;21977;-59
2023/06/13 07:02:41;;;;;;;7.40;4.60;;;;;;;23.60;62.77;100105.52;109019;1265;21976;-60
2023/06/13 07:05:08;;;;;;;6.90;4.50;;;;;;;23.57;62.82;100105.54;108985;1267;21975;-60
2023/06/13 07:07:35;;;;;;;9.70;3.90;;;;;;;23.54;62.84;100103.27;109053;1271;21984;-71
2023/06/13 07:10:04;;;;;;;8.00;4.10;;;;;;;23.51;63.26;100101.34;109005;1274;21985;-71
2023/06/13 07:12:32;;;;;;;6.60;4.20;;;;;;;23.50;62.97;100101.39;108987;1274;21991;-60
2023/06/13 07:14:58;;;;;;;7.00;4.80;;;;;;;23.49;62.88;100103.80;109036;1274;21985;-59
2023/06/13 07:17:24;;;;;;;7.90;4.50;;;;;;;23.46;62.64;100104.34;109037;1271;21976;-60
2023/06/13 07:19:49;;;;;;;8.50;5.00;;;;;;;23.41;62.79;100104.30;109010;1264;21974;-59
2023/06/13 07:22:15;;;;;;;8.40;5.10;;;;;;;23.38;63.16;100107.45;108957;1268;21976;-67
2023/06/13 07:24:42;;;;;;;8.60;4.70;;;;;;;23.33;63.89;100108.30;109163;1274;21972;-61
2023/06/13 07:27:08;;;;;;;8.40;5.20;;;;;;;23.26;64.38;100108.99;109173;1270;21980;-64
2023/06/13 07:29:34;;;;;;;8.60;4.90;;;;;;;23.21;65.05;100110.56;109268;1274;21977;-64
2023/06/13 07:32:03;;;;;;;9.50;5.10;;;;;;;23.14;64.95;100116.52;109144;1274;22014;-65
2023/06/13 07:34:29;;;;;;;7.50;4.80;;;;;;;23.10;65.08;100119.17;109250;1271;21964;-65
2023/06/13 07:36:55;;;;;;;7.50;4.70;;;;;;;23.06;65.78;100119.06;109120;1274;21975;-62
2023/06/13 07:39:20;;;;;;;7.10;4.70;;;;;;;23.04;65.80;100122.83;109199;1272;21983;-64
2023/06/13 07:41:48;;;;;;;9.20;4.80;;;;;;;23.01;65.97;100128.36;109174;1274;21976;-64
2023/06/13 07:44:14;;;;;;;6.50;4.50;;;;;;;22.97;65.98;100127.36;109137;1274;22166;-63
2023/06/13 07:46:40;;;;;;;7.40;4.20;;;;;;;22.93;66.17;100128.00;109003;1274;22164;-64
2023/06/13 07:49:07;;;;;;;8.20;4.60;;;;;;;22.92;66.43;100127.75;109018;1274;21979;-64
2023/06/13 07:51:33;;;;;;;7.10;4.90;;;;;;;22.89;66.72;100129.17;109079;1274;21970;-63
2023/06/13 07:53:59;;;;;;;8.70;4.80;;;;;;;22.85;66.95;100131.21;109178;1274;21952;-64
2023/06/13 07:56:25;;;;;;;9.40;4.40;;;;;;;22.83;67.35;100138.13;109196;1274;21976;-65
2023/06/13 07:58:51;;;;;;;5.90;3.70;;;;;;;22.84;67.91;100136.27;109244;1265;21987;-64
2023/06/13 08:01:17;;;;;;;6.70;4.10;;;;;;;22.83;68.81;100138.14;109039;1274;21980;-64
2023/06/13 08:03:46;;;;;;;7.30;4.20;;;;;;;22.82;69.32;100141.41;109195;1274;24024;-64
2023/06/13 08:06:12;;;;;;;6.10;3.70;;;;;;;22.81;69.60;100138.66;108953;1274;21974;-63
2023/06/13 08:08:38;;;;;;;11.30;4.20;;;;;;;22.80;69.66;100138.34;108974;1274;22205;-65
2023/06/13 08:11:04;;;;;;;9.40;3.80;;;;;;;22.82;69.67;100137.55;108981;1271;21982;-62
2023/06/13 08:36:47;;;;;;;8.20;4.90;;;;;;;21.99;82.81;100138.19;108292;1281;22105;-71
2023/06/13 08:39:13;;;;;;;6.00;4.10;;;;;;;22.39;79.67;100136.77;108225;1273;22018;-71
2023/06/13 08:41:39;;;;;;;7.70;3.70;;;;;;;22.56;78.96;100136.56;108173;1284;22017;-65
2023/06/13 08:44:04;;;;;;;6.40;3.90;;;;;;;22.67;77.80;100138.48;108218;1284;22099;-65
2023/06/13 08:46:33;;;;;;;8.70;3.70;;;;;;;22.77;76.77;100141.06;108247;1279;227381;-66
2023/06/13 08:49:00;;;;;;;7.90;4.00;;;;;;;22.86;76.39;100141.55;108541;1279;21969;-72
2023/06/13 08:51:29;;;;;;;5.10;3.00;;;;;;;22.94;76.35;100139.59;108398;1281;21939;-72
2023/06/13 08:53:57;;;;;;;4.80;2.70;;;;;;;23.03;76.03;100139.50;108592;1280;23625;-73
2023/06/13 08:56:22;;;;;;;3.40;2.10;;;;;;;23.13;75.90;100140.05;108434;1276;21988;-66
2023/06/13 08:58:53;;;;;;;6.10;2.20;;;;;;;23.24;75.76;100140.39;108465;1279;21983;-67
2023/06/13 09:01:21;;;;;;;3.50;2.00;;;;;;;23.37;75.59;100138.27;108599;1273;23302;-71
2023/06/13 09:03:48;;;;;;;2.80;2.10;;;;;;;23.50;75.27;100137.23;108297;1283;21995;-67
2023/06/13 09:06:15;;;;;;;3.10;2.00;;;;;;;23.59;75.27;100136.57;108244;1283;21991;-70
2023/06/13 09:08:41;;;;;;;3.90;2.10;;;;;;;23.66;74.88;100141.05;108137;1277;21983;-65
2023/06/13 09:11:07;;;;;;;7.20;2.40;;;;;;;23.76;75.03;100141.48;108335;1281;21989;-66
2023/06/13 09:13:33;;;;;;;6.60;2.90;;;;;;;23.84;74.88;100142.34;108159;1283;23583;-64
2023/06/13 09:15:58;;;;;;;3.70;2.30;;;;;;;23.90;74.15;100136.54;108170;1283;21996;-70
2023/06/13 09:18:24;;;;;;;3.80;2.70;;;;;;;23.94;73.89;100136.59;108315;1282;21970;-69
2023/06/13 09:20:50;;;;;;;4.50;2.70;;;;;;;23.95;73.84;100138.33;108244;1282;21982;-70
2023/06/13 09:23:16;;;;;;;3.60;1.90;;;;;;;24.00;74.06;100139.80;108171;1278;21980;-70
2023/06/13 09:25:41;;;;;;;4.10;1.80;;;;;;;24.04;73.66;100144.83;108264;1281;21988;-68
2023/06/13 09:28:29;;;;;;;4.90;2.10;;;;;;;24.11;73.49;100141.69;108137;1281;21977;-66
2023/06/13 09:30:59;;;;;;;3.10;1.90;;;;;;;24.20;73.53;100141.40;108295;1281;21982;-75
2023/06/13 09:33:25;;;;;;;4.60;2.30;;;;;;;24.28;73.73;100137.55;108275;1275;21980;-67
2023/06/13 09:35:51;;;;;;;3.20;2.00;;;;;;;24.38;72.89;100137.38;108375;1281;22452;-67
2023/06/13 09:38:25;;;;;;;3.20;2.20;;;;;;;24.43;72.75;100137.50;108305;1281;21986;-67
2023/06/13 09:40:55;;;;;;;3.80;2.20;;;;;;;24.48;72.44;100134.99;109300;1283;21985;-66
2023/06/13 09:43:22;;;;;;;4.80;2.40;;;;;;;24.53;72.43;100136.63;108269;1273;21988;-67
2023/06/13 09:45:48;;;;;;;3.90;2.30;;;;;;;24.61;72.05;100136.25;108227;1283;22373;-68
2023/06/13 09:48:14;;;;;;;4.00;2.70;;;;;;;24.66;71.99;100138.73;108284;1276;22920;-66
2023/06/13 09:50:40;;;;;;;5.40;2.80;;;;;;;24.71;72.03;100137.47;108338;1282;21981;-67
2023/06/13 09:53:10;;;;;;;4.90;2.90;;;;;;;24.79;72.11;100130.58;108316;1282;21983;-69
2023/06/13 09:55:36;;;;;;;6.00;3.20;;;;;;;24.89;71.71;100128.57;108328;1276;21980;-67
2023/06/13 09:58:05;;;;;;;6.20;3.60;;;;;;;24.99;71.20;100131.76;108294;1281;22013;-68
2023/06/13 10:00:31;;;;;;;6.40;4.00;;;;;;;25.04;70.94;100128.90;108360;1282;22035;-69
2023/06/13 10:02:56;;;;;;;6.50;4.30;;;;;;;25.05;70.77;100126.46;108369;1282;21978;-70
2023/06/13 10:05:23;;;;;;;5.80;4.30;;;;;;;25.11;70.85;100126.19;108362;1272;23090;-68
2023/06/13 10:07:49;;;;;;;5.00;3.80;;;;;;;25.19;71.14;100123.73;108413;1282;24341;-67
2023/06/13 10:10:15;;;;;;;5.90;4.30;;;;;;;25.32;71.23;100122.73;108314;1282;21950;-70
2023/06/13 10:12:45;;;;;;;7.50;4.10;;;;;;;25.51;70.89;100122.36;108351;1277;21942;-67
2023/06/13 10:15:11;;;;;;;7.80;4.00;;;;;;;25.67;70.76;100121.27;108306;1282;22022;-67
2023/06/13 10:17:40;;;;;;;6.30;4.60;;;;;;;25.79;70.29;100117.70;108367;1282;21988;-71
2023/06/13 10:20:08;;;;;;;6.90;4.40;;;;;;;25.95;70.52;100110.95;108350;1277;21986;-71
2023/06/13 10:22:34;;;;;;;5.90;4.20;;;;;;;26.13;70.62;100103.39;108367;1282;22028;-67
2023/06/13 10:25:00;;;;;;;9.10;4.00;;;;;;;26.29;70.26;100098.90;108340;1282;21988;-71
2023/06/13 10:27:25;;;;;;;5.80;3.90;;;;;;;26.41;70.48;100096.44;108346;1270;22450;-71
2023/06/13 10:30:24;;;;;;;5.20;4.30;;;;;;;26.57;70.12;100101.27;108381;1282;21990;-66
2023/06/13 10:33:04;;;;;;;5.70;4.10;;;;;;;26.75;69.57;100098.66;108355;1273;21985;-67
2023/06/13 10:35:56;;;;;;;6.20;4.70;;;;;;;26.95;69.49;100090.88;108369;1282;21978;-67
2023/06/13 10:38:48;;;;;;;4.90;3.70;;;;;;;27.16;69.29;100087.31;108445;1282;22425;-66
2023/06/13 10:41:50;;;;;;;5.80;3.90;;;;;;;27.32;67.99;100085.00;108384;1282;22023;-66
2023/06/13 10:44:56;;;;;;;8.00;4.90;;;;;;;27.36;67.50;100081.23;108527;1281;21983;-74
2023/06/13 10:47:22;;;;;;;7.70;4.70;;;;;;;27.46;67.06;100078.90;108408;1281;22032;-74
2023/06/13 10:49:48;;;;;;;7.10;3.60;;;;;;;27.63;67.61;100071.48;108433;1279;22102;-74
2023/06/13 10:52:15;;;;;;;5.50;3.60;;;;;;;27.87;68.34;100073.48;108513;1282;21985;-66
2023/06/13 10:54:41;;;;;;;6.30;4.60;;;;;;;28.10;67.78;100073.98;108222;1283;21959;-74
2023/06/13 10:57:07;;;;;;;10.00;6.30;;;;;;;28.29;66.77;100071.95;110101;1278;21913;-66
2023/06/13 10:59:37;;;;;;;9.60;5.60;;;;;;;28.50;65.17;100071.81;109872;1282;21982;-74
2023/06/13 11:02:23;;;;;;;7.80;6.70;;;;;;;28.70;65.22;100066.52;108396;1282;23627;-65
2023/06/13 11:04:50;;;;;;;7.40;5.20;;;;;;;29.06;66.49;100060.23;108380;1282;21995;-75
2023/06/13 11:07:24;;;;;;;6.60;5.70;;;;;;;29.40;64.28;100059.36;108385;1282;22001;-65
2023/06/13 11:10:04;;;;;;;11.30;8.00;;;;;;;29.56;62.31;100062.90;108366;1282;21979;-65
2023/06/13 11:12:30;;;;;;;9.90;7.30;;;;;;;29.57;61.52;100061.34;108425;1282;21986;-66
2023/06/13 11:14:57;;;;;;;9.20;7.10;;;;;;;29.73;61.91;100056.75;108375;1282;21992;-74
2023/06/13 11:17:23;;;;;;;8.40;6.40;;;;;;;30.00;62.66;100055.39;108217;1276;22456;-69
2023/06/13 11:19:53;;;;;;;11.00;8.80;;;;;;;30.35;61.64;100059.17;108464;1277;22043;-66
2023/06/13 11:22:21;;;;;;;10.60;8.00;;;;;;;30.62;59.70;100062.01;108287;1282;22024;-75
2023/06/13 11:24:47;;;;;;;11.60;9.00;;;;;;;30.77;58.92;100062.56;108295;1273;22000;-73
2023/06/13 11:27:15;;;;;;;12.80;7.90;;;;;;;31.02;60.52;100059.04;108285;1277;21983;-67
2023/06/13 11:29:44;;;;;;;18.80;12.10;;;;;;;31.37;60.03;100052.20;108375;1282;21991;-67
2023/06/13 11:32:10;;;;;;;15.30;11.70;;;;;;;31.64;58.55;100050.05;108293;1282;21985;-68
2023/06/13 11:34:42;;;;;;;14.40;12.50;;;;;;;31.87;57.93;100046.95;108434;1273;21982;-75
2023/06/13 11:37:16;;;;;;;16.60;13.40;;;;;;;32.13;57.91;100050.43;108544;1282;23068;-66
2023/06/13 11:39:41;;;;;;;18.50;14.00;;;;;;;32.39;55.89;100050.31;108405;1269;23987;-74
2023/06/13 11:42:08;;;;;;;26.80;21.40;;;;;;;32.51;56.21;100048.85;108290;1276;21986;-66